Time;durP1;ratioP1;P1;durP2;ratioP2;P2;SDS_P1;SDS_P2;PMS_P1;PMS_P2;Temp;Humidity;BMP_temperature;BMP_pressure;BME280_temperature;BME280_humidity;BME280_pressure;Samples;Min_cycle;Max_cycle;Signal;HPM_P1;HPM_P2
2021/01/08 07:41:13;;;;;;;1999.90;999.90;;;;;;;3.70;88.83;100547.09;1802658;76;70856;-83
2021/01/08 07:43:41;;;;;;;1999.90;999.90;;;;;;;3.69;88.94;100546.81;1843926;77;21197;-84
2021/01/08 07:46:09;;;;;;;1999.90;999.90;;;;;;;3.70;89.26;100552.03;1849866;77;21363;-88
2021/01/08 07:48:38;;;;;;;1999.90;999.90;;;;;;;3.70;89.28;100548.46;1848860;77;21690;-88
2021/01/08 07:51:13;;;;;;;1999.90;999.90;;;;;;;3.70;89.66;100546.55;1806829;78;21174;-82
2021/01/08 07:53:48;;;;;;;1999.90;999.90;;;;;;;3.74;90.00;100544.11;1813768;79;21151;-86
2021/01/08 07:56:24;;;;;;;1999.90;999.90;;;;;;;3.77;90.39;100549.88;1798268;78;21553;-84
2021/01/08 07:59:07;;;;;;;1999.90;999.90;;;;;;;3.81;89.32;100551.55;1793461;79;21504;-87
2021/01/08 08:01:35;;;;;;;1999.90;999.90;;;;;;;3.86;88.92;100555.14;1782430;79;21202;-83
2021/01/08 08:04:08;;;;;;;1999.90;999.90;;;;;;;3.92;88.57;100557.91;1787565;79;21162;-82
2021/01/08 08:06:40;;;;;;;1999.90;999.90;;;;;;;3.93;88.05;100545.33;1791937;79;21635;-88
2021/01/08 08:09:13;;;;;;;1999.90;999.90;;;;;;;3.95;87.23;100558.75;1793281;79;21590;-85
2021/01/08 08:11:41;;;;;;;1999.90;999.90;;;;;;;3.98;87.33;100564.52;1791857;79;22202;-87
2021/01/08 08:14:19;;;;;;;1999.90;999.90;;;;;;;4.02;87.17;100557.43;1787719;79;21186;-85
2021/01/08 08:16:47;;;;;;;1999.90;999.90;;;;;;;4.02;86.44;100558.80;1792238;79;21142;-84
2021/01/08 08:19:15;;;;;;;1999.90;999.90;;;;;;;4.03;86.74;100554.15;1761967;79;20976;-86
2021/01/08 08:21:50;;;;;;;1999.90;999.90;;;;;;;4.05;86.89;100561.55;1796189;78;21185;-84
2021/01/08 08:24:18;;;;;;;1999.90;999.90;;;;;;;4.07;87.14;100570.33;1783050;79;21279;-87
2021/01/08 08:26:48;;;;;;;1999.90;999.90;;;;;;;4.09;86.62;100569.52;1790755;79;21129;-87
2021/01/08 08:29:17;;;;;;;1999.90;999.90;;;;;;;4.14;87.11;100575.02;1797133;79;21173;-87
2021/01/08 08:31:50;;;;;;;1999.90;999.90;;;;;;;4.17;86.93;100567.64;1790457;79;21103;-86
2021/01/08 08:34:29;;;;;;;1999.90;999.90;;;;;;;4.21;86.89;100572.33;1761864;79;21174;-87
2021/01/08 08:37:07;;;;;;;1999.90;999.90;;;;;;;4.25;86.80;100572.62;1791190;79;21368;-83
2021/01/08 08:39:35;;;;;;;1999.90;999.90;;;;;;;4.30;87.10;100569.08;1760551;80;21257;-85
2021/01/08 08:42:04;;;;;;;1999.90;999.90;;;;;;;4.33;87.00;100564.44;1821027;78;21131;-84
2021/01/08 08:44:42;;;;;;;1999.90;999.90;;;;;;;4.33;87.69;100563.89;1817765;78;21278;-86
2021/01/08 08:47:19;;;;;;;1999.90;999.90;;;;;;;4.38;87.31;100563.91;1793250;78;22348;-70
2021/01/08 08:49:48;;;;;;;1999.90;999.90;;;;;;;4.34;87.72;100555.13;1777876;80;21037;-75
2021/01/08 08:52:27;;;;;;;1999.90;999.90;;;;;;;4.36;87.45;100559.80;1749397;80;22678;-67
2021/01/08 08:54:55;;;;;;;1999.90;999.90;;;;;;;4.38;87.67;100558.43;1776526;80;22108;-72
2021/01/08 08:57:23;;;;;;;1999.90;999.90;;;;;;;4.42;87.88;100567.77;1773656;79;21628;-70
2021/01/08 08:59:52;;;;;;;1999.90;999.90;;;;;;;4.45;87.46;100555.45;1779685;80;21641;-73
2021/01/08 09:02:27;;;;;;;1999.90;999.90;;;;;;;4.47;87.05;100564.22;1771240;80;20953;-68
2021/01/08 09:05:02;;;;;;;1999.90;999.90;;;;;;;4.49;87.26;100569.71;1775355;80;22108;-76
2021/01/08 09:07:40;;;;;;;1999.90;999.90;;;;;;;4.51;86.70;100573.02;1777562;80;20970;-74
2021/01/08 09:10:26;;;;;;;1999.90;999.90;;;;;;;4.55;86.44;100563.70;1781702;80;20980;-71
2021/01/08 09:13:11;;;;;;;1999.90;999.90;;;;;;;4.59;85.84;100574.95;1782507;80;20945;-70
2021/01/08 09:15:58;;;;;;;1999.90;999.90;;;;;;;4.64;85.94;100565.38;1867361;76;22252;-71
2021/01/08 09:18:52;;;;;;;1999.90;999.90;;;;;;;4.59;85.85;100584.00;1846778;75;20893;-65
2021/01/08 09:21:27;;;;;;;1999.90;999.90;;;;;;;4.57;86.28;100577.97;1842944;77;21204;-69
2021/01/08 09:23:55;;;;;;;1999.90;999.90;;;;;;;4.58;85.46;100585.09;1843808;75;20976;-72
2021/01/08 09:26:25;;;;;;;1999.90;999.90;;;;;;;4.60;85.83;100577.97;1778231;79;20989;-71
2021/01/08 09:28:53;;;;;;;1999.90;999.90;;;;;;;4.63;86.20;100572.78;1815198;77;21518;-65
2021/01/08 09:31:31;;;;;;;1999.90;999.90;;;;;;;4.66;85.15;100571.42;1779959;78;21506;-70
2021/01/08 09:34:00;;;;;;;1999.90;999.90;;;;;;;4.67;84.89;100568.95;1797006;77;21383;-66
2021/01/08 09:36:36;;;;;;;1999.90;999.90;;;;;;;4.59;83.77;100570.84;1777991;80;20989;-69
2021/01/08 09:39:08;;;;;;;1999.90;999.90;;;;;;;4.57;84.38;100580.70;1776860;80;21010;-68
2021/01/08 09:41:37;;;;;;;1999.90;999.90;;;;;;;4.51;83.73;100577.13;1811164;77;21004;-69
2021/01/08 09:44:09;;;;;;;1999.90;999.90;;;;;;;4.48;83.49;100568.61;1792303;79;21082;-68
2021/01/08 09:46:56;;;;;;;1999.90;999.90;;;;;;;4.45;82.95;100566.41;1795152;79;21472;-71
2021/01/08 09:49:27;;;;;;;1999.90;999.90;;;;;;;4.44;82.69;100572.98;1792994;79;20982;-65
2021/01/08 09:52:01;;;;;;;1999.90;999.90;;;;;;;4.40;83.31;100572.69;1793756;79;20921;-66
2021/01/08 09:54:42;;;;;;;;;;;;;;;4.42;83.60;100577.91;1813800;77;21583;-70
2021/01/08 09:57:13;;;;;;;1999.90;999.90;;;;;;;4.44;83.04;100575.72;1798737;79;20239;-68
2021/01/08 09:59:41;;;;;;;1999.90;999.90;;;;;;;4.37;83.25;100576.52;1801713;78;22191;-75
2021/01/08 10:02:09;;;;;;;1999.90;999.90;;;;;;;4.30;83.53;100578.67;1754632;79;21012;-69
2021/01/08 10:04:38;;;;;;;1999.90;999.90;;;;;;;4.26;83.02;100592.07;1802563;79;21028;-67
2021/01/08 10:07:09;;;;;;;1999.90;999.90;;;;;;;4.17;83.68;100587.64;1779729;79;21135;-71
2021/01/08 10:09:53;;;;;;;1999.90;999.90;;;;;;;4.16;84.16;100589.28;1804523;78;20992;-72
2021/01/08 10:12:23;;;;;;;1999.90;999.90;;;;;;;4.12;84.04;100575.29;1793537;79;21554;-69
2021/01/08 10:14:58;;;;;;;1999.90;999.90;;;;;;;4.09;84.69;100573.08;1806119;79;20984;-66
2021/01/08 10:17:26;;;;;;;1999.90;999.90;;;;;;;4.14;84.28;100567.62;1796753;79;20961;-72
2021/01/08 10:19:55;;;;;;;1999.90;999.90;;;;;;;4.22;84.74;100560.83;1796456;79;21086;-73
2021/01/08 10:22:23;;;;;;;1999.90;999.90;;;;;;;4.33;83.97;100550.73;1767073;78;21078;-71
2021/01/08 10:24:51;;;;;;;1999.90;999.90;;;;;;;4.44;82.86;100560.10;1790642;78;22217;-71
2021/01/08 10:27:25;;;;;;;1999.90;999.90;;;;;;;4.50;82.38;100554.92;1824517;78;20948;-66
2021/01/08 10:29:53;;;;;;;1999.90;999.90;;;;;;;4.52;82.34;100564.24;1776740;78;21606;-72
2021/01/08 10:32:21;;;;;;;1999.90;999.90;;;;;;;4.57;82.43;100565.63;1823685;78;21664;-69
2021/01/08 10:34:49;;;;;;;1999.90;999.90;;;;;;;4.61;82.63;100564.00;1787201;78;21078;-63
2021/01/08 10:37:20;;;;;;;1999.90;999.90;;;;;;;4.69;82.90;100557.17;1798472;78;21486;-68
2021/01/08 10:39:47;;;;;;;1999.90;999.90;;;;;;;4.78;82.35;100558.30;1793003;78;20976;-68
2021/01/08 10:42:15;;;;;;;1999.90;999.90;;;;;;;4.85;81.95;100554.75;1822617;78;21374;-65
2021/01/08 10:44:43;;;;;;;1999.90;999.90;;;;;;;4.81;81.34;100566.80;1786611;78;21429;-66
2021/01/08 10:47:11;;;;;;;1999.90;999.90;;;;;;;4.76;81.10;100573.64;1745315;81;21026;-70
2021/01/08 10:49:41;;;;;;;1999.90;999.90;;;;;;;4.72;81.71;100567.60;1786605;78;21376;-66
2021/01/08 10:52:09;;;;;;;1999.90;999.90;;;;;;;4.69;81.81;100568.96;1824622;78;21119;-69
2021/01/08 10:54:37;;;;;;;1999.90;999.90;;;;;;;4.68;81.79;100567.86;1814701;78;21376;-67
2021/01/08 10:57:06;;;;;;;1999.90;999.90;;;;;;;4.68;82.09;100576.91;1814559;78;21134;-67
2021/01/08 10:59:34;;;;;;;1999.90;999.90;;;;;;;4.68;81.61;100570.05;1811958;78;21154;-68
2021/01/08 11:02:02;;;;;;;1999.90;999.90;;;;;;;4.63;81.44;100568.67;1816515;78;21197;-69
2021/01/08 11:04:32;;;;;;;1999.90;999.90;;;;;;;4.60;82.34;100571.95;1817809;78;21115;-69
2021/01/08 11:07:00;;;;;;;1999.90;999.90;;;;;;;4.57;81.89;100564.27;1809613;78;21143;-67
2021/01/08 11:09:28;;;;;;;1999.90;999.90;;;;;;;4.49;81.88;100564.78;1801048;78;21072;-66
2021/01/08 11:11:55;;;;;;;1999.90;999.90;;;;;;;4.45;81.16;100569.14;1803835;78;21076;-66
2021/01/08 11:14:23;;;;;;;1999.90;999.90;;;;;;;4.43;81.54;100568.59;1776992;78;21440;-67
2021/01/08 11:16:51;;;;;;;1999.90;999.90;;;;;;;4.39;81.91;100566.93;1778254;80;21008;-72
2021/01/08 11:19:20;;;;;;;1999.90;999.90;;;;;;;4.38;82.35;100568.02;1787131;78;21149;-68
2021/01/08 11:21:53;;;;;;;1999.90;999.90;;;;;;;4.38;82.55;100569.39;1780655;78;21083;-69
2021/01/08 11:24:21;;;;;;;1999.90;999.90;;;;;;;4.37;82.69;100572.40;1824067;78;21075;-69
2021/01/08 11:26:49;;;;;;;1999.90;999.90;;;;;;;4.36;82.49;100572.13;1815236;78;22356;-67
2021/01/08 11:29:17;;;;;;;1999.90;999.90;;;;;;;4.32;82.48;100577.31;1816342;78;21569;-68
2021/01/08 11:31:45;;;;;;;1999.90;999.90;;;;;;;4.28;82.66;100576.19;1824302;77;21095;-71
2021/01/08 11:34:13;;;;;;;1999.90;999.90;;;;;;;4.26;83.12;100569.33;1819246;78;21577;-65
2021/01/08 11:36:41;;;;;;;1999.90;999.90;;;;;;;4.23;83.63;100572.60;1819488;78;21083;-68
2021/01/08 11:39:09;;;;;;;1999.90;999.90;;;;;;;4.19;83.87;100577.24;1821130;78;21260;-71
2021/01/08 11:41:36;;;;;;;1999.90;999.90;;;;;;;4.14;83.70;100574.48;1815986;78;21537;-70
2021/01/08 11:44:06;;;;;;;1999.90;999.90;;;;;;;4.08;82.91;100567.32;1820420;78;20921;-71
2021/01/08 11:46:34;;;;;;;1999.90;999.90;;;;;;;4.03;83.38;100581.53;1812120;78;21787;-73
2021/01/08 11:49:02;;;;;;;1999.90;999.90;;;;;;;3.99;83.85;100586.72;1821410;78;20954;-71
2021/01/08 11:51:30;;;;;;;1999.90;999.90;;;;;;;3.94;84.19;100577.64;1816978;78;21911;-65
2021/01/08 11:53:59;;;;;;;1999.90;999.90;;;;;;;3.91;84.62;100573.52;1812874;78;20984;-65
2021/01/08 11:56:28;;;;;;;1999.90;999.90;;;;;;;3.92;84.91;100578.45;1824173;78;21099;-66
2021/01/08 11:58:56;;;;;;;1999.90;999.90;;;;;;;3.89;85.01;100579.25;1807818;78;20905;-66
2021/01/08 12:01:25;;;;;;;1999.90;999.90;;;;;;;3.87;84.58;100581.44;1814768;78;21051;-68
2021/01/08 12:03:54;;;;;;;1999.90;999.90;;;;;;;3.87;82.92;100583.34;1796424;78;21358;-68
2021/01/08 12:06:30;;;;;;;1999.90;999.90;;;;;;;3.87;82.44;100582.80;1802951;77;21519;-69
2021/01/08 12:08:59;;;;;;;1999.90;999.90;;;;;;;3.87;82.96;100573.22;1809030;78;20981;-72
2021/01/08 12:11:28;;;;;;;1999.90;999.90;;;;;;;3.89;83.24;100576.52;1820983;78;21074;-70
2021/01/08 12:13:56;;;;;;;1999.90;999.90;;;;;;;3.92;83.17;100574.34;1821514;78;21107;-67
2021/01/08 12:16:28;;;;;;;1999.90;999.90;;;;;;;3.91;82.60;100569.41;1808869;78;21451;-67
2021/01/08 12:18:57;;;;;;;1999.90;999.90;;;;;;;3.93;82.45;100574.62;1815105;78;20953;-69
2021/01/08 12:21:27;;;;;;;1999.90;999.90;;;;;;;3.92;82.90;100579.27;1809021;78;20952;-69
2021/01/08 12:23:55;;;;;;;1999.90;999.90;;;;;;;3.93;83.13;100580.09;1814871;78;20978;-70
2021/01/08 12:26:24;;;;;;;1999.90;999.90;;;;;;;3.89;83.19;100585.28;1816333;78;21439;-67
2021/01/08 12:28:52;;;;;;;1999.90;999.90;;;;;;;3.87;83.25;100593.75;1811483;78;21380;-69
2021/01/08 12:31:26;;;;;;;1999.90;999.90;;;;;;;3.87;83.47;100591.56;1817893;78;21049;-69
2021/01/08 12:33:54;;;;;;;1999.90;999.90;;;;;;;3.87;83.97;100586.09;1772866;80;20985;-69
2021/01/08 12:36:22;;;;;;;1999.90;999.90;;;;;;;3.86;83.79;100592.11;1819467;78;21122;-68
2021/01/08 12:38:50;;;;;;;1999.90;999.90;;;;;;;3.85;83.66;100595.11;1811222;78;21097;-67
2021/01/08 12:41:19;;;;;;;1999.90;999.90;;;;;;;3.83;83.56;100595.38;1824570;78;21357;-72
2021/01/08 12:43:47;;;;;;;1999.90;999.90;;;;;;;3.84;83.62;100594.83;1782897;78;20994;-66
2021/01/08 12:46:20;;;;;;;1999.90;999.90;;;;;;;3.85;83.15;100590.45;1813285;78;21922;-61
2021/01/08 12:48:48;;;;;;;1999.90;999.90;;;;;;;3.80;82.94;100587.68;1770544;79;20974;-66
2021/01/08 12:51:17;;;;;;;1999.90;999.90;;;;;;;3.79;83.34;100583.30;1813845;78;21186;-68
2021/01/08 12:53:44;;;;;;;1999.90;999.90;;;;;;;3.78;83.25;100580.82;1796641;78;21354;-68
2021/01/08 12:56:15;;;;;;;1999.90;999.90;;;;;;;3.74;83.04;100582.44;1802328;77;21487;-70
2021/01/08 12:58:45;;;;;;;1999.90;999.90;;;;;;;3.72;83.52;100590.09;1799808;79;20941;-70
2021/01/08 13:01:17;;;;;;;1999.90;999.90;;;;;;;3.73;83.72;100591.73;1789476;78;21102;-69
2021/01/08 13:03:46;;;;;;;1999.90;999.90;;;;;;;3.71;83.49;100591.17;1818573;77;21783;-71
2021/01/08 13:06:25;;;;;;;1999.90;999.90;;;;;;;3.68;83.62;100601.28;1783789;78;22276;-70
2021/01/08 13:08:53;;;;;;;1999.90;999.90;;;;;;;3.65;83.63;100594.41;1813449;78;21042;-72
2021/01/08 13:11:21;;;;;;;1999.90;999.90;;;;;;;3.64;83.73;100597.41;1794760;78;21045;-68
2021/01/08 13:13:49;;;;;;;1999.90;999.90;;;;;;;3.64;83.60;100602.88;1790724;78;21112;-70
2021/01/08 13:16:23;;;;;;;1999.90;999.90;;;;;;;3.62;83.69;100604.52;1815573;78;21359;-66
2021/01/08 13:18:52;;;;;;;1999.90;999.90;;;;;;;3.59;84.01;100591.36;1812420;78;21274;-69
2021/01/08 13:21:20;;;;;;;1999.90;999.90;;;;;;;3.55;83.57;100594.33;1824486;77;21343;-67
2021/01/08 13:23:48;;;;;;;1999.90;999.90;;;;;;;3.51;83.71;100592.66;1786974;78;20954;-70
2021/01/08 13:26:24;;;;;;;1999.90;999.90;;;;;;;3.48;84.08;100595.09;1814327;78;21079;-69
2021/01/08 13:28:53;;;;;;;1999.90;999.90;;;;;;;3.45;84.32;100597.81;1813303;77;21080;-72
2021/01/08 13:31:25;;;;;;;1999.90;999.90;;;;;;;3.43;84.52;100598.61;1788656;78;21191;-71
2021/01/08 13:33:55;;;;;;;1999.90;999.90;;;;;;;3.42;84.70;100600.23;1810301;77;21113;-70
2021/01/08 13:36:23;;;;;;;1999.90;999.90;;;;;;;3.37;84.71;100611.96;1808303;78;21870;-67
2021/01/08 13:38:52;;;;;;;1999.90;999.90;;;;;;;3.28;84.77;100599.84;1811566;78;21419;-67
2021/01/08 13:41:21;;;;;;;1999.90;999.90;;;;;;;3.23;85.07;100602.53;1777657;78;21103;-65
2021/01/08 13:43:50;;;;;;;1999.90;999.90;;;;;;;3.18;85.36;100588.80;1812044;78;22261;-66
2021/01/08 13:46:18;;;;;;;1999.90;999.90;;;;;;;3.15;85.57;100600.26;1808018;78;21538;-67
2021/01/08 13:48:47;;;;;;;1999.90;999.90;;;;;;;3.13;85.52;100613.37;1818482;78;21087;-69
2021/01/08 13:54:27;;;;;;;1999.90;999.90;;;;;;;3.13;85.51;100610.63;1821204;76;23191;-66
2021/01/08 13:56:55;;;;;;;1999.90;999.90;;;;;;;3.07;85.77;100617.13;1721242;81;20965;-66
2021/01/08 13:59:25;;;;;;;1999.90;999.90;;;;;;;3.08;85.95;100614.68;1746656;81;22255;-68
2021/01/08 14:01:53;;;;;;;1999.90;999.90;;;;;;;3.07;85.84;100613.03;1809656;77;21131;-67
2021/01/08 14:04:21;;;;;;;1999.90;999.90;;;;;;;3.04;85.79;100613.00;1798145;79;20953;-70
2021/01/08 14:06:50;;;;;;;1999.90;999.90;;;;;;;3.05;86.10;100615.20;1798582;79;21115;-70
2021/01/08 14:09:18;;;;;;;1999.90;999.90;;;;;;;3.05;86.06;100618.76;1808722;79;20929;-75
2021/01/08 14:11:46;;;;;;;1999.90;999.90;;;;;;;3.03;86.20;100616.82;1801525;79;21362;-76
2021/01/08 14:14:14;;;;;;;1999.90;999.90;;;;;;;3.00;86.09;100619.24;1802918;79;21499;-72
2021/01/08 14:16:42;;;;;;;1999.90;999.90;;;;;;;2.94;85.92;100625.73;1811420;78;20934;-69
2021/01/08 14:19:10;;;;;;;1999.90;999.90;;;;;;;2.89;85.95;100631.97;1812838;79;21005;-70
2021/01/08 14:21:39;;;;;;;1999.90;999.90;;;;;;;2.84;86.16;100625.91;1800133;79;20961;-70
2021/01/08 14:24:07;;;;;;;1999.90;999.90;;;;;;;2.81;86.37;100618.77;1803956;79;21333;-62
2021/01/08 14:26:36;;;;;;;1999.90;999.90;;;;;;;2.74;86.44;100621.69;1797917;79;21135;-64
2021/01/08 14:29:05;;;;;;;1999.90;999.90;;;;;;;2.71;86.94;100622.73;1803745;79;20965;-67
2021/01/08 14:31:35;;;;;;;1999.90;999.90;;;;;;;2.69;87.10;100625.73;1805575;79;21101;-65
2021/01/08 14:34:10;;;;;;;1999.90;999.90;;;;;;;2.64;87.26;100628.94;1799849;79;21633;-67
2021/01/08 14:36:41;;;;;;;1999.90;999.90;;;;;;;2.60;87.57;100628.62;1802439;78;21263;-64
2021/01/08 14:39:10;;;;;;;1999.90;999.90;;;;;;;2.59;87.98;100632.44;1815466;79;20937;-65
2021/01/08 14:41:38;;;;;;;1999.90;999.90;;;;;;;2.59;88.31;100634.63;1790203;79;21048;-66
2021/01/08 14:44:06;;;;;;;1999.90;999.90;;;;;;;2.59;88.48;100638.72;1807500;79;21260;-64
2021/01/08 14:46:38;;;;;;;1999.90;999.90;;;;;;;2.62;88.68;100640.66;1816089;77;21131;-64
2021/01/08 14:49:06;;;;;;;1999.90;999.90;;;;;;;2.62;88.79;100625.63;1803932;79;21373;-63
2021/01/08 14:51:37;;;;;;;1999.90;999.90;;;;;;;2.61;89.00;100628.91;1812151;79;21088;-63
2021/01/08 14:54:06;;;;;;;1999.90;999.90;;;;;;;2.64;89.22;100631.67;1804326;79;21169;-65
2021/01/08 14:56:38;;;;;;;1999.90;999.90;;;;;;;2.65;89.29;100630.59;1800643;78;20993;-64
2021/01/08 14:59:19;;;;;;;1999.90;999.90;;;;;;;2.69;89.32;100632.56;1857858;74;22372;-63
2021/01/08 15:01:45;;;;;;;1999.90;999.90;;;;;;;2.64;89.47;100637.14;1834971;75;21406;-65
2021/01/08 15:04:13;;;;;;;1999.90;999.90;;;;;;;2.65;89.51;100633.33;1823275;77;21488;-69
2021/01/08 15:06:42;;;;;;;1999.90;999.90;;;;;;;2.68;89.74;100628.72;1820135;78;21035;-70
2021/01/08 15:09:12;;;;;;;1999.90;999.90;;;;;;;2.73;89.87;100626.05;1824870;77;20972;-69
2021/01/08 15:11:40;;;;;;;1999.90;999.90;;;;;;;2.74;89.83;100625.79;1819502;78;20920;-69
2021/01/08 15:14:08;;;;;;;1999.90;999.90;;;;;;;2.73;89.52;100632.34;1827737;77;21055;-67
2021/01/08 15:16:37;;;;;;;1999.90;999.90;;;;;;;2.69;89.44;100627.63;1824512;77;21336;-68
2021/01/08 15:19:06;;;;;;;1999.90;999.90;;;;;;;2.70;89.62;100627.92;1788950;78;21112;-68
2021/01/08 15:24:15;;;;;;;1999.90;999.90;;;;;;;2.76;89.88;100635.92;1719148;81;21648;-71
2021/01/08 15:26:45;;;;;;;1999.90;999.90;;;;;;;2.76;89.90;100641.39;1723628;82;21090;-75
2021/01/08 15:29:15;;;;;;;1999.90;999.90;;;;;;;2.76;89.95;100643.30;1698956;82;21497;-75
2021/01/08 15:31:43;;;;;;;1999.90;999.90;;;;;;;2.77;90.03;100655.34;1663036;84;21154;-69
2021/01/08 15:34:11;;;;;;;1999.90;999.90;;;;;;;2.77;89.85;100657.25;1675491;85;21805;-72
2021/01/08 15:36:39;;;;;;;1999.90;999.90;;;;;;;2.75;89.89;100656.14;1717759;81;21008;-67
2021/01/08 15:39:07;;;;;;;1999.90;999.90;;;;;;;2.77;90.06;100654.52;1713210;83;21128;-65
2021/01/08 15:41:35;;;;;;;1999.90;999.90;;;;;;;2.76;89.96;100649.59;1688540;82;21837;-63
2021/01/08 15:44:26;;;;;;;1999.90;999.90;;;;;;;2.76;89.92;100654.23;1703227;82;21616;-68
2021/01/08 15:46:54;;;;;;;1999.90;999.90;;;;;;;2.76;90.01;100648.77;1767051;79;21083;-67
2021/01/08 15:49:22;;;;;;;1999.90;999.90;;;;;;;2.77;90.22;100653.98;1825359;77;21075;-66
2021/01/08 15:51:51;;;;;;;1999.90;999.90;;;;;;;2.78;90.38;100663.83;1788986;76;21094;-67
2021/01/08 15:54:20;;;;;;;1999.90;999.90;;;;;;;2.80;90.54;100655.38;1820209;77;22460;-62
2021/01/08 15:56:51;;;;;;;1999.90;999.90;;;;;;;2.83;90.64;100643.93;1813896;77;21529;-62
2021/01/08 15:59:19;;;;;;;1999.90;999.90;;;;;;;2.84;90.74;100654.61;1769178;79;20976;-66
2021/01/08 16:01:49;;;;;;;1999.90;999.90;;;;;;;2.86;90.57;100650.25;1768050;79;21564;-65
2021/01/08 16:04:18;;;;;;;1999.90;999.90;;;;;;;2.82;90.32;100649.11;1773304;79;21540;-67
2021/01/08 16:06:46;;;;;;;1999.90;999.90;;;;;;;2.80;90.39;100649.91;1814405;77;22092;-66
2021/01/08 16:09:15;;;;;;;1999.90;999.90;;;;;;;2.80;90.41;100646.63;1797911;78;21115;-68
2021/01/08 16:11:43;;;;;;;1999.90;999.90;;;;;;;2.81;90.47;100654.30;1807203;77;21011;-68
2021/01/08 16:14:12;;;;;;;1999.90;999.90;;;;;;;2.84;90.56;100657.34;1813897;77;20942;-68
2021/01/08 16:16:39;;;;;;;1999.90;999.90;;;;;;;2.81;90.57;100663.86;1818569;77;21137;-69
2021/01/08 16:19:07;;;;;;;1999.90;999.90;;;;;;;2.77;91.00;100672.28;1795546;78;21365;-69
2021/01/08 16:21:37;;;;;;;1999.90;999.90;;;;;;;2.76;91.40;100667.90;1812805;77;21602;-65
2021/01/08 16:24:06;;;;;;;1999.90;999.90;;;;;;;2.76;91.70;100671.45;1767980;79;20983;-67
2021/01/08 16:26:34;;;;;;;1999.90;999.90;;;;;;;2.82;91.74;100672.34;1734435;79;21111;-64
2021/01/08 16:29:03;;;;;;;1999.90;999.90;;;;;;;2.84;91.75;100668.81;1816222;77;20953;-66
2021/01/08 16:31:31;;;;;;;1999.90;999.90;;;;;;;2.87;91.71;100668.31;1837833;77;21372;-67
2021/01/08 16:34:00;;;;;;;1999.90;999.90;;;;;;;2.87;91.66;100659.56;1800634;77;21273;-67
2021/01/08 16:36:28;;;;;;;1999.90;999.90;;;;;;;2.90;91.64;100672.72;1813546;77;20941;-69
2021/01/08 16:39:01;;;;;;;1999.90;999.90;;;;;;;2.91;91.68;100664.81;1806481;77;21158;-71
2021/01/08 16:41:29;;;;;;;1999.90;999.90;;;;;;;2.91;91.74;100675.74;1797437;78;21105;-68
2021/01/08 16:43:57;;;;;;;1999.90;999.90;;;;;;;2.87;91.54;100670.50;1741926;78;21221;-72
2021/01/08 16:46:26;;;;;;;1999.90;999.90;;;;;;;2.81;91.25;100672.06;1814520;77;21580;-70
2021/01/08 16:48:55;;;;;;;1999.90;999.90;;;;;;;2.77;91.35;100672.28;1824132;77;21105;-70
2021/01/08 16:51:23;;;;;;;1999.90;999.90;;;;;;;2.79;91.37;100673.68;1821741;77;21127;-69
2021/01/08 16:53:53;;;;;;;1999.90;999.90;;;;;;;2.78;91.23;100669.84;1813107;77;21131;-67
2021/01/08 16:56:21;;;;;;;1999.90;999.90;;;;;;;2.75;91.10;100668.44;1776381;79;21397;-66
2021/01/08 16:58:50;;;;;;;1999.90;999.90;;;;;;;2.71;91.01;100666.47;1820912;77;21110;-66
2021/01/08 17:01:19;;;;;;;1999.90;999.90;;;;;;;2.68;91.22;100661.51;1819323;77;21110;-66
2021/01/08 17:03:51;;;;;;;1999.90;999.90;;;;;;;2.69;91.34;100659.89;1818624;77;21125;-67
2021/01/08 17:06:23;;;;;;;1999.90;999.90;;;;;;;2.69;91.41;100659.89;1820819;77;21068;-71
2021/01/08 17:08:51;;;;;;;1999.90;999.90;;;;;;;2.70;91.45;100665.64;1819034;77;22311;-70
2021/01/08 17:11:19;;;;;;;1999.90;999.90;;;;;;;2.72;91.51;100658.55;1836370;77;20992;-69
2021/01/08 17:13:48;;;;;;;1999.90;999.90;;;;;;;2.69;91.43;100657.16;1814962;77;21763;-62
2021/01/08 17:16:24;;;;;;;1999.90;999.90;;;;;;;2.70;91.59;100660.17;1821616;78;21095;-63
2021/01/08 17:18:53;;;;;;;1999.90;999.90;;;;;;;2.71;91.47;100664.56;1825127;77;21616;-65
2021/01/08 17:21:34;;;;;;;1999.90;999.90;;;;;;;2.70;91.43;100651.98;1814816;77;21201;-65
2021/01/08 17:24:03;;;;;;;1999.90;999.90;;;;;;;2.71;91.48;100665.09;1807083;78;20984;-64
2021/01/08 17:26:34;;;;;;;1999.90;999.90;;;;;;;2.72;91.69;100664.02;1819924;77;21090;-67
2021/01/08 17:29:08;;;;;;;1999.90;999.90;;;;;;;2.73;91.79;100662.40;1814409;77;21076;-68
2021/01/08 17:31:37;;;;;;;1999.90;999.90;;;;;;;2.71;91.67;100667.30;1826937;77;20956;-66
2021/01/08 17:34:06;;;;;;;1999.90;999.90;;;;;;;2.70;91.54;100660.71;1792289;78;21886;-66
2021/01/08 17:36:35;;;;;;;1999.90;999.90;;;;;;;2.70;91.56;100668.38;1826858;77;21561;-70
2021/01/08 17:39:06;;;;;;;1999.90;999.90;;;;;;;2.71;91.53;100672.76;1802444;78;20961;-67
2021/01/08 17:41:36;;;;;;;1999.90;999.90;;;;;;;2.72;91.53;100663.48;1835379;77;21506;-69
2021/01/08 17:44:05;;;;;;;1999.90;999.90;;;;;;;2.76;91.70;100672.00;1837769;77;21071;-70
2021/01/08 17:46:33;;;;;;;1999.90;999.90;;;;;;;2.77;91.80;100672.28;1795345;78;21361;-69
2021/01/08 17:49:02;;;;;;;1999.90;999.90;;;;;;;2.79;91.89;100674.22;1824038;77;21671;-69
2021/01/08 17:51:31;;;;;;;1999.90;999.90;;;;;;;2.82;91.97;100678.64;1817623;78;21095;-68
2021/01/08 17:54:01;;;;;;;1999.90;999.90;;;;;;;2.86;92.02;100682.52;1811641;77;21571;-68
2021/01/08 17:56:29;;;;;;;1999.90;999.90;;;;;;;2.87;91.90;100672.41;1810077;77;21091;-66
2021/01/08 17:58:58;;;;;;;1999.90;999.90;;;;;;;2.88;91.76;100668.59;1822291;77;21244;-71
2021/01/08 18:01:27;;;;;;;1999.90;999.90;;;;;;;2.87;91.79;100657.37;1818150;77;21130;-65
2021/01/08 18:03:56;;;;;;;1999.90;999.90;;;;;;;2.87;91.78;100658.74;1806144;77;21059;-73
2021/01/08 18:06:25;;;;;;;1999.90;999.90;;;;;;;2.84;91.73;100660.08;1819101;77;21134;-67
2021/01/08 18:08:54;;;;;;;1999.90;999.90;;;;;;;2.85;91.84;100654.89;1817605;77;21011;-70
2021/01/08 18:11:26;;;;;;;1999.90;999.90;;;;;;;2.83;91.74;100655.69;1825446;77;22304;-68
2021/01/08 18:13:54;;;;;;;1999.90;999.90;;;;;;;2.82;91.72;100662.78;1810483;78;21110;-69
2021/01/08 18:16:22;;;;;;;1999.90;999.90;;;;;;;2.81;91.68;100667.95;1798775;78;21414;-68
2021/01/08 18:18:51;;;;;;;1999.90;999.90;;;;;;;2.80;91.61;100664.40;1802431;78;21114;-69
2021/01/08 18:21:33;;;;;;;1999.90;999.90;;;;;;;2.81;91.66;100664.69;1823235;77;21094;-67
2021/01/08 18:24:02;;;;;;;1999.90;999.90;;;;;;;2.79;91.49;100662.75;1810923;77;21142;-67
2021/01/08 18:26:37;;;;;;;1999.90;999.90;;;;;;;2.74;91.36;100672.79;1822586;77;21637;-68
2021/01/08 18:29:05;;;;;;;1999.90;999.90;;;;;;;2.70;91.41;100669.73;1803684;77;28086;-70
2021/01/08 18:31:37;;;;;;;1999.90;999.90;;;;;;;2.66;91.62;100678.16;1815890;78;20979;-70
2021/01/08 18:34:06;;;;;;;1999.90;999.90;;;;;;;2.64;91.90;100689.88;1819578;77;21086;-67
2021/01/08 18:36:36;;;;;;;1999.90;999.90;;;;;;;2.63;92.10;100688.23;1830422;77;21502;-66
2021/01/08 18:39:08;;;;;;;1999.90;999.90;;;;;;;2.61;92.27;100690.38;1820757;77;21166;-65
2021/01/08 18:44:16;;;;;;;1999.90;999.90;;;;;;;2.66;92.44;100680.06;1826415;76;22728;-69
2021/01/08 18:46:45;;;;;;;1999.90;999.90;;;;;;;2.60;92.37;100690.09;1782396;79;21538;-66
2021/01/08 18:49:14;;;;;;;1999.90;999.90;;;;;;;2.60;92.36;100686.00;1776650;79;21200;-71
2021/01/08 18:51:43;;;;;;;1999.90;999.90;;;;;;;2.60;92.45;100676.44;1784746;79;20951;-64
2021/01/08 18:54:12;;;;;;;1999.90;999.90;;;;;;;2.61;92.48;100673.16;1785161;79;21024;-64
2021/01/08 18:56:40;;;;;;;1999.90;999.90;;;;;;;2.61;92.51;100685.46;1786445;78;20927;-64